Steelville, Pennsylvania
Current Conditions -  °F | °C
As of 8:35 AM on Sunday 23 Nov 2014 (Local Time) from KMQS Reporting Station
Few Clouds Few Clouds  
Wind Chill: 36°   Ceiling: Unl
Heat Index: 39°   Visibility: 10mi
Dew Point: 21°   Wind: 5mph
Humidity: 49%   Direction: 230°SW
Pressure: 30.23"   Gusts: NA
Location:  39.9°N, 75.99°W
Report Text: KMQS 231335Z AUTO 23004KT 10SM FEW075 04/M06 A3023 RMK AO2
Loading
Personal Weather Stations






























Interactive Weather Map New forecast layout! Learn more

10-Day Weather Forecast

Advertisements
Track Severe Weather on mobile